Atlanta, Georgia
Traffic Map
Current Weather Conditions
Atlanta, Georgia
Overcast
Overcast
40°
Feels Like: 36°
Wind Chill: 36° Ceiling: 15000
Heat Index: 40° Visibility: 10mi
Dew Point: 26° Wind: 6mph
Humidity: 58% Direction: 80° (E)
Pressure: 30.13in Gusts: 0mph
Raw Report DataKATL 121152Z 08005KT 10SM FEW120 BKN150 OVC200 04/M03 A3013 RMK AO2 SLP205 T00441033 10056 20033 50000
Traffic Incident Summary
Active as of:
Severity:
Category:
InformationThere was an issue retrieving the traffic information for this location. Please try a different location or try again shortly.
Advertisements
Track Severe Weather on mobile